Time;durP1;ratioP1;P1;durP2;ratioP2;P2;SDS_P1;SDS_P2;PMS_P1;PMS_P2;Temp;Humidity;BMP_temperature;BMP_pressure;BME280_temperature;BME280_humidity;BME280_pressure;Samples;Min_cycle;Max_cycle;Signal;HPM_P1;HPM_P2
2022/10/29 00:00:00;;;;;;;18.63;9.02;;;;;;;;;;5052225;28;20033;-76
2022/10/29 00:02:25;;;;;;;19.05;9.35;;;;;;;;;;5051732;28;20071;-76
2022/10/29 00:04:50;;;;;;;19.45;9.68;;;;;;;;;;5051513;28;20025;-76
2022/10/29 00:07:16;;;;;;;17.83;8.88;;;;;;;;;;5051754;28;20024;-76
2022/10/29 00:09:41;;;;;;;14.25;8.40;;;;;;;;;;5051896;28;20033;-76
2022/10/29 00:12:07;;;;;;;19.77;9.48;;;;;;;;;;5051643;28;20033;-75
2022/10/29 00:14:32;;;;;;;18.50;9.10;;;;;;;;;;5051828;28;20024;-75
2022/10/29 00:16:57;;;;;;;15.18;8.20;;;;;;;;;;5051265;28;20039;-75
2022/10/29 00:19:22;;;;;;;18.95;8.25;;;;;;;;;;5051467;28;20524;-76
2022/10/29 00:21:51;;;;;;;14.70;8.35;;;;;;;;;;5051624;28;20048;-76
2022/10/29 00:24:16;;;;;;;15.45;8.57;;;;;;;;;;5066941;28;20068;-76
2022/10/29 00:26:41;;;;;;;13.55;8.13;;;;;;;;;;5051281;28;20486;-76
2022/10/29 00:29:07;;;;;;;16.80;8.70;;;;;;;;;;5050997;28;20056;-77
2022/10/29 00:31:32;;;;;;;15.88;8.50;;;;;;;;;;5051337;28;20433;-76
2022/10/29 00:33:57;;;;;;;17.63;8.95;;;;;;;;;;5051076;28;20025;-77
2022/10/29 00:36:26;;;;;;;18.42;9.10;;;;;;;;;;5051179;28;20104;-76
2022/10/29 00:38:51;;;;;;;16.95;9.23;;;;;;;;;;5066469;28;20032;-76
2022/10/29 00:41:36;;;;;;;19.38;9.77;;;;;;;;;;5050620;28;20401;-76
2022/10/29 00:44:13;;;;;;;15.27;9.38;;;;;;;;;;5049517;28;20029;-76
2022/10/29 00:46:41;;;;;;;17.95;9.95;;;;;;;;;;5051002;28;20025;-76
2022/10/29 00:49:07;;;;;;;20.40;10.95;;;;;;;;;;5050833;28;20033;-76
2022/10/29 00:51:33;;;;;;;18.88;10.15;;;;;;;;;;5050613;28;20501;-76
2022/10/29 00:54:03;;;;;;;20.45;10.38;;;;;;;;;;5066078;28;20020;-76
2022/10/29 00:56:36;;;;;;;18.98;10.05;;;;;;;;;;5050696;28;20059;-76
2022/10/29 00:59:02;;;;;;;19.85;10.52;;;;;;;;;;5066075;28;20082;-76
2022/10/29 01:01:27;;;;;;;20.70;9.98;;;;;;;;;;5051160;28;20025;-76
2022/10/29 01:03:54;;;;;;;15.80;9.85;;;;;;;;;;5050194;28;20024;-77
2022/10/29 01:06:19;;;;;;;18.67;10.23;;;;;;;;;;5065930;28;20048;-76
2022/10/29 01:08:44;;;;;;;19.02;10.85;;;;;;;;;;5050474;28;20025;-76
2022/10/29 01:11:37;;;;;;;17.65;10.13;;;;;;;;;;5050634;28;20039;-77
2022/10/29 01:14:24;;;;;;;19.27;10.68;;;;;;;;;;5050367;28;20081;-76
2022/10/29 01:17:11;;;;;;;22.15;11.02;;;;;;;;;;5050050;28;20398;-75
2022/10/29 01:20:17;;;;;;;19.75;10.55;;;;;;;;;;5049022;28;20078;-75
2022/10/29 01:22:45;;;;;;;18.45;10.18;;;;;;;;;;5050137;28;20106;-77
2022/10/29 01:25:29;;;;;;;20.10;10.75;;;;;;;;;;5050212;28;20036;-76
2022/10/29 01:28:25;;;;;;;23.52;10.40;;;;;;;;;;5049725;28;20028;-76
2022/10/29 01:31:15;;;;;;;17.23;10.60;;;;;;;;;;5050065;28;20025;-76
2022/10/29 01:34:09;;;;;;;22.33;10.57;;;;;;;;;;5065548;28;20033;-75
2022/10/29 01:36:59;;;;;;;19.00;11.00;;;;;;;;;;5050006;28;20075;-77
2022/10/29 01:39:51;;;;;;;19.45;10.32;;;;;;;;;;5049653;28;20264;-76
2022/10/29 01:42:31;;;;;;;18.10;10.63;;;;;;;;;;5050011;28;20051;-75
2022/10/29 01:45:10;;;;;;;17.42;9.88;;;;;;;;;;5050168;28;20021;-76
2022/10/29 01:47:40;;;;;;;18.50;10.18;;;;;;;;;;5048508;28;20032;-76
2022/10/29 01:50:09;;;;;;;16.98;10.18;;;;;;;;;;5049818;28;20489;-75
2022/10/29 01:52:36;;;;;;;19.63;10.77;;;;;;;;;;5049181;28;20037;-76
2022/10/29 01:55:01;;;;;;;21.95;10.57;;;;;;;;;;5049924;28;20091;-77
2022/10/29 01:57:35;;;;;;;16.63;10.02;;;;;;;;;;5065136;28;20425;-74
2022/10/29 02:00:16;;;;;;;21.80;10.90;;;;;;;;;;5049728;28;20104;-75
2022/10/29 02:02:45;;;;;;;22.02;10.38;;;;;;;;;;5049499;28;20035;-75
2022/10/29 02:05:25;;;;;;;23.25;11.00;;;;;;;;;;5064582;28;20037;-75
2022/10/29 02:07:53;;;;;;;20.90;10.45;;;;;;;;;;5049522;28;20395;-76
2022/10/29 02:10:30;;;;;;;21.05;10.45;;;;;;;;;;5049560;28;20047;-76
2022/10/29 02:12:56;;;;;;;22.63;10.75;;;;;;;;;;5049752;28;20204;-76
2022/10/29 02:15:30;;;;;;;18.88;10.27;;;;;;;;;;5049108;28;20453;-75
2022/10/29 02:18:01;;;;;;;18.10;10.95;;;;;;;;;;5064732;28;20458;-75
2022/10/29 02:20:26;;;;;;;19.30;10.75;;;;;;;;;;5048850;28;20040;-74
2022/10/29 02:22:51;;;;;;;18.40;10.75;;;;;;;;;;5049325;28;20394;-75
2022/10/29 02:25:17;;;;;;;17.08;10.20;;;;;;;;;;5064844;28;20065;-75
2022/10/29 02:27:42;;;;;;;19.02;10.60;;;;;;;;;;5047650;28;20029;-75
2022/10/29 02:30:07;;;;;;;20.58;10.77;;;;;;;;;;5049333;28;20075;-76
2022/10/29 02:32:33;;;;;;;19.83;10.60;;;;;;;;;;5049147;28;20052;-75
2022/10/29 02:35:01;;;;;;;23.65;10.85;;;;;;;;;;5049206;28;20017;-75
2022/10/29 02:37:26;;;;;;;17.15;10.45;;;;;;;;;;5064673;28;20024;-75
2022/10/29 02:39:52;;;;;;;18.27;10.82;;;;;;;;;;5049017;28;20079;-75
2022/10/29 02:42:17;;;;;;;19.02;10.55;;;;;;;;;;5064389;28;20029;-75
2022/10/29 02:44:42;;;;;;;17.38;10.85;;;;;;;;;;5049059;28;20029;-76
2022/10/29 02:47:07;;;;;;;19.02;11.02;;;;;;;;;;5049495;28;20071;-75
2022/10/29 02:49:33;;;;;;;21.02;11.57;;;;;;;;;;5049065;28;20033;-75
2022/10/29 02:51:58;;;;;;;19.65;10.63;;;;;;;;;;5048584;28;20033;-76
2022/10/29 02:54:23;;;;;;;21.92;11.20;;;;;;;;;;5049092;28;20437;-75
2022/10/29 02:56:48;;;;;;;18.00;11.00;;;;;;;;;;5064420;28;20028;-76
2022/10/29 02:59:14;;;;;;;20.90;11.50;;;;;;;;;;5049104;28;20020;-76
2022/10/29 03:01:39;;;;;;;18.50;10.77;;;;;;;;;;5049058;28;20564;-76
2022/10/29 03:04:04;;;;;;;18.63;10.85;;;;;;;;;;5048449;28;20360;-76
2022/10/29 03:06:29;;;;;;;24.38;11.55;;;;;;;;;;5049223;28;20083;-76
2022/10/29 03:08:55;;;;;;;22.17;10.68;;;;;;;;;;5048994;28;20108;-76
2022/10/29 03:11:20;;;;;;;24.27;11.43;;;;;;;;;;5048852;28;20029;-76
2022/10/29 03:13:45;;;;;;;18.45;11.57;;;;;;;;;;5048802;28;20159;-76
2022/10/29 03:16:11;;;;;;;18.50;11.18;;;;;;;;;;5047280;28;20025;-76
2022/10/29 03:18:36;;;;;;;20.17;11.77;;;;;;;;;;5047558;28;20032;-76
2022/10/29 03:21:02;;;;;;;20.10;11.13;;;;;;;;;;5048793;28;20029;-76
2022/10/29 03:23:27;;;;;;;19.42;11.27;;;;;;;;;;5064224;28;20461;-76
2022/10/29 03:25:54;;;;;;;20.10;10.40;;;;;;;;;;5048854;28;20033;-75
2022/10/29 03:28:21;;;;;;;23.70;11.45;;;;;;;;;;5048490;28;20041;-75
2022/10/29 03:30:46;;;;;;;19.00;11.10;;;;;;;;;;5048696;28;20074;-76
2022/10/29 03:33:12;;;;;;;25.05;11.75;;;;;;;;;;5052058;28;20028;-76
2022/10/29 03:35:37;;;;;;;19.40;11.43;;;;;;;;;;5052613;28;20047;-76
2022/10/29 03:38:02;;;;;;;24.55;11.77;;;;;;;;;;5052569;28;20033;-76
2022/10/29 03:40:28;;;;;;;29.10;12.55;;;;;;;;;;5050564;28;20116;-76
2022/10/29 03:42:53;;;;;;;24.05;12.25;;;;;;;;;;5050697;28;20031;-75
2022/10/29 03:45:18;;;;;;;21.67;12.15;;;;;;;;;;5050635;28;20031;-75
2022/10/29 03:47:44;;;;;;;25.33;11.93;;;;;;;;;;5067312;28;20031;-76
2022/10/29 03:50:09;;;;;;;21.50;11.50;;;;;;;;;;5067313;28;20029;-76
2022/10/29 03:52:35;;;;;;;25.00;12.45;;;;;;;;;;5051298;28;20035;-75
2022/10/29 03:55:01;;;;;;;21.50;11.80;;;;;;;;;;5067359;28;20433;-75
2022/10/29 03:57:26;;;;;;;21.10;11.82;;;;;;;;;;5051944;28;20204;-75
2022/10/29 03:59:51;;;;;;;22.42;13.10;;;;;;;;;;5051753;28;20419;-75
2022/10/29 04:02:17;;;;;;;22.38;12.35;;;;;;;;;;5051621;28;20522;-75
2022/10/29 04:04:42;;;;;;;22.67;12.00;;;;;;;;;;5051251;28;20029;-76
2022/10/29 04:07:07;;;;;;;22.42;11.43;;;;;;;;;;5067111;28;20143;-76
2022/10/29 04:09:32;;;;;;;25.00;12.57;;;;;;;;;;5051582;28;20041;-76
2022/10/29 04:11:58;;;;;;;22.00;12.65;;;;;;;;;;5051800;28;20427;-77
2022/10/29 04:14:23;;;;;;;21.42;12.65;;;;;;;;;;5066886;28;20024;-76
2022/10/29 04:16:48;;;;;;;24.80;12.15;;;;;;;;;;5051102;28;20025;-76
2022/10/29 04:19:14;;;;;;;24.33;12.23;;;;;;;;;;5050188;28;20506;-77
2022/10/29 04:21:39;;;;;;;21.40;11.63;;;;;;;;;;5050213;28;20033;-76
2022/10/29 04:24:04;;;;;;;22.38;12.00;;;;;;;;;;5051201;28;20021;-76
2022/10/29 04:26:30;;;;;;;20.98;11.82;;;;;;;;;;5051517;28;20024;-75
2022/10/29 04:28:55;;;;;;;21.52;12.13;;;;;;;;;;5066260;28;20066;-75
2022/10/29 04:31:20;;;;;;;32.25;12.70;;;;;;;;;;5051209;28;20090;-76
2022/10/29 04:33:46;;;;;;;22.38;12.27;;;;;;;;;;5051118;28;20075;-76
2022/10/29 04:36:11;;;;;;;21.10;12.50;;;;;;;;;;5066508;28;20025;-76
2022/10/29 04:38:37;;;;;;;22.65;11.95;;;;;;;;;;5051036;28;20504;-76
2022/10/29 04:41:03;;;;;;;20.50;12.45;;;;;;;;;;5050584;28;20521;-77
2022/10/29 04:43:29;;;;;;;20.73;12.27;;;;;;;;;;5065438;28;20060;-76
2022/10/29 04:45:56;;;;;;;25.10;12.55;;;;;;;;;;5051136;28;20437;-77
2022/10/29 04:48:23;;;;;;;23.27;12.48;;;;;;;;;;5051138;28;20025;-76
2022/10/29 04:50:49;;;;;;;22.60;11.70;;;;;;;;;;5050540;28;20043;-77
2022/10/29 04:53:15;;;;;;;22.10;10.88;;;;;;;;;;5050430;28;20107;-76
2022/10/29 04:55:40;;;;;;;28.25;12.93;;;;;;;;;;5050673;28;20111;-76
2022/10/29 04:58:10;;;;;;;23.27;13.48;;;;;;;;;;5052298;28;20051;-75
2022/10/29 05:00:36;;;;;;;24.98;12.43;;;;;;;;;;5052853;28;20025;-76
2022/10/29 05:03:01;;;;;;;24.10;12.70;;;;;;;;;;5053962;28;20071;-76
2022/10/29 05:05:27;;;;;;;25.25;12.63;;;;;;;;;;5054037;28;20471;-76
2022/10/29 05:08:00;;;;;;;23.17;12.57;;;;;;;;;;5069555;28;20025;-76
2022/10/29 05:10:33;;;;;;;22.15;12.13;;;;;;;;;;5053976;28;20025;-75
2022/10/29 05:13:03;;;;;;;26.10;12.40;;;;;;;;;;5053937;28;20406;-75
2022/10/29 05:15:29;;;;;;;22.73;11.93;;;;;;;;;;5054349;28;20103;-75
2022/10/29 05:17:56;;;;;;;22.92;12.52;;;;;;;;;;5054124;28;20171;-74
2022/10/29 05:20:23;;;;;;;23.42;12.77;;;;;;;;;;5052563;28;20039;-75
2022/10/29 05:22:48;;;;;;;23.33;12.07;;;;;;;;;;5069381;28;20585;-75
2022/10/29 05:25:14;;;;;;;23.48;12.05;;;;;;;;;;5053643;28;20033;-75
2022/10/29 05:27:39;;;;;;;26.33;12.60;;;;;;;;;;5053704;28;20024;-76
2022/10/29 05:30:06;;;;;;;23.60;13.05;;;;;;;;;;5053966;28;20028;-77
2022/10/29 05:32:31;;;;;;;21.92;12.40;;;;;;;;;;5053540;28;20498;-76
2022/10/29 05:34:56;;;;;;;25.45;12.63;;;;;;;;;;5053626;28;20039;-76
2022/10/29 05:37:26;;;;;;;20.60;12.60;;;;;;;;;;5052295;28;20025;-75
2022/10/29 05:39:52;;;;;;;22.67;12.00;;;;;;;;;;5053764;28;20043;-75
2022/10/29 05:42:17;;;;;;;20.52;11.95;;;;;;;;;;5068874;28;20470;-76
2022/10/29 05:44:42;;;;;;;22.45;12.75;;;;;;;;;;5053238;28;20040;-75
2022/10/29 05:47:08;;;;;;;20.17;11.27;;;;;;;;;;5053402;28;20021;-75
2022/10/29 05:49:33;;;;;;;21.23;11.68;;;;;;;;;;5053386;28;20053;-76
2022/10/29 05:51:58;;;;;;;22.05;12.05;;;;;;;;;;5053199;28;20032;-76
2022/10/29 05:54:23;;;;;;;22.52;11.65;;;;;;;;;;5052443;28;20103;-76
2022/10/29 05:56:49;;;;;;;21.48;11.85;;;;;;;;;;5053488;28;20047;-76
2022/10/29 05:59:14;;;;;;;22.33;11.38;;;;;;;;;;5053274;28;20020;-75
2022/10/29 06:01:39;;;;;;;19.95;11.75;;;;;;;;;;5053172;28;20028;-76
2022/10/29 06:04:05;;;;;;;18.60;11.65;;;;;;;;;;5053196;28;20017;-76
2022/10/29 06:06:30;;;;;;;22.00;11.93;;;;;;;;;;5053045;28;20024;-76
2022/10/29 06:08:55;;;;;;;20.20;11.63;;;;;;;;;;5053026;28;20036;-76
2022/10/29 06:11:20;;;;;;;25.55;11.82;;;;;;;;;;5052978;28;20103;-76
2022/10/29 06:13:46;;;;;;;21.80;12.10;;;;;;;;;;5053107;28;20025;-75
2022/10/29 06:16:11;;;;;;;20.88;11.95;;;;;;;;;;5053130;28;20032;-76
2022/10/29 06:18:36;;;;;;;21.30;11.73;;;;;;;;;;5053003;28;20104;-75
2022/10/29 06:21:02;;;;;;;22.00;12.52;;;;;;;;;;5052966;28;20516;-76
2022/10/29 06:23:27;;;;;;;23.83;11.75;;;;;;;;;;5052814;28;20021;-76
2022/10/29 06:25:53;;;;;;;20.75;11.88;;;;;;;;;;5052919;28;20029;-75
2022/10/29 06:28:18;;;;;;;22.60;11.70;;;;;;;;;;5068248;28;20529;-76
2022/10/29 06:30:48;;;;;;;22.17;11.27;;;;;;;;;;5068319;28;20025;-76
2022/10/29 06:33:15;;;;;;;21.52;11.60;;;;;;;;;;5051508;28;20029;-76
2022/10/29 06:35:43;;;;;;;22.67;12.02;;;;;;;;;;5052666;28;20146;-76
2022/10/29 06:38:09;;;;;;;20.95;11.68;;;;;;;;;;5068233;28;20163;-76
2022/10/29 06:40:34;;;;;;;20.33;11.23;;;;;;;;;;5052910;28;20116;-76
2022/10/29 06:43:05;;;;;;;24.45;11.40;;;;;;;;;;5052904;28;20021;-76
2022/10/29 06:45:31;;;;;;;22.40;12.15;;;;;;;;;;5053029;28;20029;-76
2022/10/29 06:47:57;;;;;;;25.05;12.60;;;;;;;;;;5068028;28;20036;-76
2022/10/29 06:50:22;;;;;;;23.30;12.50;;;;;;;;;;5068050;28;20029;-75
2022/10/29 06:52:55;;;;;;;23.38;11.05;;;;;;;;;;5052428;28;20124;-76
2022/10/29 06:55:23;;;;;;;26.02;12.57;;;;;;;;;;5052691;28;20123;-76
2022/10/29 06:58:04;;;;;;;21.83;11.48;;;;;;;;;;5052741;28;20470;-76
2022/10/29 07:00:31;;;;;;;21.85;11.73;;;;;;;;;;5053027;28;20025;-76
2022/10/29 07:02:57;;;;;;;20.85;11.93;;;;;;;;;;5067840;28;20028;-75
2022/10/29 07:05:23;;;;;;;22.05;11.80;;;;;;;;;;5053026;28;20070;-77
2022/10/29 07:07:48;;;;;;;23.15;11.93;;;;;;;;;;5072090;28;20029;-74
2022/10/29 07:10:14;;;;;;;20.45;11.60;;;;;;;;;;5055248;28;20470;-74
2022/10/29 07:12:43;;;;;;;26.48;12.55;;;;;;;;;;5056666;28;20029;-75
2022/10/29 07:15:10;;;;;;;25.05;11.57;;;;;;;;;;5056767;28;20378;-76
2022/10/29 07:17:35;;;;;;;24.70;12.05;;;;;;;;;;5056189;28;20115;-76
2022/10/29 07:20:02;;;;;;;24.42;11.77;;;;;;;;;;5056197;28;20056;-75
2022/10/29 07:22:27;;;;;;;24.90;11.73;;;;;;;;;;5071477;28;20116;-75
2022/10/29 07:24:52;;;;;;;23.48;11.75;;;;;;;;;;5055968;28;20113;-75
2022/10/29 07:27:18;;;;;;;22.80;11.85;;;;;;;;;;5054730;28;20025;-75
2022/10/29 07:29:43;;;;;;;23.45;12.27;;;;;;;;;;5056710;28;20044;-75
2022/10/29 07:32:08;;;;;;;22.25;11.85;;;;;;;;;;5071229;28;20021;-76
2022/10/29 07:34:33;;;;;;;22.88;11.95;;;;;;;;;;5055918;28;20104;-74
2022/10/29 07:36:59;;;;;;;26.33;11.82;;;;;;;;;;5056078;28;20028;-75
2022/10/29 07:39:24;;;;;;;18.90;11.05;;;;;;;;;;5055838;28;20474;-75
2022/10/29 07:41:49;;;;;;;25.48;11.98;;;;;;;;;;5055792;28;20029;-76
2022/10/29 07:44:14;;;;;;;25.15;12.60;;;;;;;;;;5055611;28;20056;-76
2022/10/29 07:46:40;;;;;;;25.52;11.18;;;;;;;;;;5055594;28;20048;-76
2022/10/29 07:49:05;;;;;;;19.23;11.20;;;;;;;;;;5055465;28;20031;-75
2022/10/29 07:51:30;;;;;;;20.08;10.15;;;;;;;;;;5055489;28;20029;-75
2022/10/29 07:53:55;;;;;;;18.80;11.55;;;;;;;;;;5055361;28;20551;-76
2022/10/29 07:56:21;;;;;;;19.55;11.25;;;;;;;;;;5055515;28;20053;-76
2022/10/29 07:58:46;;;;;;;18.52;10.98;;;;;;;;;;5070799;28;20025;-75
2022/10/29 08:01:11;;;;;;;20.63;10.95;;;;;;;;;;5055621;28;20021;-75
2022/10/29 08:03:36;;;;;;;22.83;11.27;;;;;;;;;;5055178;28;20029;-75
2022/10/29 08:06:02;;;;;;;21.83;10.77;;;;;;;;;;5055213;28;20477;-76
2022/10/29 08:08:27;;;;;;;18.98;10.45;;;;;;;;;;5055721;28;20025;-75
2022/10/29 08:11:03;;;;;;;23.17;10.85;;;;;;;;;;5055319;28;20028;-73
2022/10/29 08:13:29;;;;;;;19.65;9.65;;;;;;;;;;5055484;28;20501;-75
2022/10/29 08:15:54;;;;;;;24.95;10.10;;;;;;;;;;5055137;28;20158;-76
2022/10/29 08:18:20;;;;;;;19.65;9.98;;;;;;;;;;5070308;28;20025;-76
2022/10/29 08:20:45;;;;;;;22.58;10.43;;;;;;;;;;5053725;28;20029;-76
2022/10/29 08:23:11;;;;;;;20.05;10.48;;;;;;;;;;5070339;28;20052;-76
2022/10/29 08:25:40;;;;;;;17.45;10.10;;;;;;;;;;5054727;28;20116;-75
2022/10/29 08:28:06;;;;;;;18.20;10.25;;;;;;;;;;5054835;28;20031;-74
2022/10/29 08:30:32;;;;;;;17.90;10.00;;;;;;;;;;5054752;28;20099;-75
2022/10/29 08:32:57;;;;;;;18.10;10.35;;;;;;;;;;5054720;28;20506;-76
2022/10/29 08:35:23;;;;;;;18.85;9.10;;;;;;;;;;5054830;28;20469;-75
2022/10/29 08:37:48;;;;;;;17.85;9.73;;;;;;;;;;5054706;28;20028;-76
2022/10/29 08:40:26;;;;;;;16.92;8.95;;;;;;;;;;5070208;28;20375;-77
2022/10/29 08:42:57;;;;;;;16.33;9.48;;;;;;;;;;5070310;28;20028;-75
2022/10/29 08:45:40;;;;;;;20.63;9.65;;;;;;;;;;5054781;28;20381;-76
2022/10/29 08:48:20;;;;;;;15.85;8.20;;;;;;;;;;5055226;28;20048;-75
2022/10/29 08:50:58;;;;;;;15.50;8.15;;;;;;;;;;5054691;28;20095;-76
2022/10/29 08:53:30;;;;;;;16.52;7.95;;;;;;;;;;5069819;28;20028;-75
2022/10/29 08:55:56;;;;;;;23.23;8.02;;;;;;;;;;5054607;28;20072;-75
2022/10/29 08:58:42;;;;;;;12.20;7.40;;;;;;;;;;5054342;28;20045;-75
2022/10/29 09:01:10;;;;;;;15.55;8.50;;;;;;;;;;5054433;28;20021;-75
2022/10/29 09:03:35;;;;;;;14.95;7.97;;;;;;;;;;5054404;28;20028;-75
2022/10/29 09:06:12;;;;;;;19.33;7.85;;;;;;;;;;5054464;28;20083;-75
2022/10/29 09:09:09;;;;;;;15.65;8.38;;;;;;;;;;5054395;28;20493;-76
2022/10/29 09:11:59;;;;;;;16.55;8.48;;;;;;;;;;5054476;28;20033;-76
2022/10/29 09:14:36;;;;;;;15.15;8.82;;;;;;;;;;5054133;28;20021;-75
2022/10/29 09:17:43;;;;;;;19.33;9.40;;;;;;;;;;5054058;28;20029;-76
2022/10/29 09:20:35;;;;;;;19.02;9.30;;;;;;;;;;5054232;28;20029;-76
2022/10/29 09:23:21;;;;;;;16.50;9.18;;;;;;;;;;5069030;28;20048;-75
2022/10/29 09:25:58;;;;;;;18.27;9.00;;;;;;;;;;5053753;28;20032;-74
2022/10/29 09:28:58;;;;;;;20.58;8.95;;;;;;;;;;5069189;28;20032;-76
2022/10/29 09:31:32;;;;;;;16.73;9.13;;;;;;;;;;5052615;28;20545;-75
2022/10/29 09:34:04;;;;;;;20.73;9.73;;;;;;;;;;5053651;28;20029;-75
2022/10/29 09:36:30;;;;;;;14.38;8.82;;;;;;;;;;5053964;28;20025;-75
2022/10/29 09:39:01;;;;;;;17.67;8.85;;;;;;;;;;5068924;28;20449;-75
2022/10/29 09:41:35;;;;;;;17.38;7.90;;;;;;;;;;5053800;28;20100;-76
2022/10/29 09:44:13;;;;;;;22.63;8.15;;;;;;;;;;5053552;28;20056;-75
2022/10/29 09:46:57;;;;;;;13.95;7.93;;;;;;;;;;5053673;28;20551;-75
2022/10/29 09:49:56;;;;;;;14.10;8.50;;;;;;;;;;5069088;28;20027;-75
2022/10/29 09:52:25;;;;;;;15.73;8.48;;;;;;;;;;5065841;28;20035;-76
2022/10/29 09:54:52;;;;;;;14.50;8.32;;;;;;;;;;5049504;28;20065;-74
2022/10/29 09:57:21;;;;;;;17.45;8.38;;;;;;;;;;5049706;28;20029;-76
2022/10/29 09:59:53;;;;;;;15.75;8.35;;;;;;;;;;5049514;28;20025;-76
2022/10/29 10:02:43;;;;;;;17.67;8.57;;;;;;;;;;5048095;28;20032;-76
2022/10/29 10:05:11;;;;;;;20.17;9.02;;;;;;;;;;5065056;28;20078;-76
2022/10/29 10:07:37;;;;;;;18.27;8.48;;;;;;;;;;5049551;28;20029;-76
2022/10/29 10:10:05;;;;;;;21.25;9.25;;;;;;;;;;5049122;28;20518;-76
2022/10/29 10:12:48;;;;;;;17.90;9.10;;;;;;;;;;5047772;28;20040;-75
2022/10/29 10:15:32;;;;;;;15.33;9.10;;;;;;;;;;5049589;28;20029;-75
2022/10/29 10:18:00;;;;;;;16.73;8.13;;;;;;;;;;5049723;28;20344;-75
2022/10/29 10:20:39;;;;;;;14.93;7.65;;;;;;;;;;5048953;28;20436;-76
2022/10/29 10:23:19;;;;;;;16.98;8.75;;;;;;;;;;5049468;28;20056;-75
2022/10/29 10:25:48;;;;;;;17.70;7.32;;;;;;;;;;5049220;28;20131;-75
2022/10/29 10:28:19;;;;;;;16.23;8.68;;;;;;;;;;5049503;28;20029;-76
2022/10/29 10:31:05;;;;;;;16.30;7.78;;;;;;;;;;5064707;28;20048;-76
2022/10/29 10:33:52;;;;;;;14.63;7.70;;;;;;;;;;5048788;28;20356;-76
2022/10/29 10:36:22;;;;;;;17.65;7.70;;;;;;;;;;5049322;28;20455;-75
2022/10/29 10:38:53;;;;;;;15.43;7.53;;;;;;;;;;5049299;28;20119;-75
2022/10/29 10:41:24;;;;;;;15.35;7.93;;;;;;;;;;5051536;28;20033;-77
2022/10/29 10:43:50;;;;;;;15.35;7.82;;;;;;;;;;5053417;28;20029;-76
2022/10/29 10:46:29;;;;;;;14.00;7.60;;;;;;;;;;5068131;28;20029;-74
2022/10/29 10:48:59;;;;;;;18.13;7.72;;;;;;;;;;5053207;28;20035;-76
2022/10/29 10:51:32;;;;;;;18.83;7.57;;;;;;;;;;5068360;28;20036;-77
2022/10/29 10:54:01;;;;;;;13.50;7.90;;;;;;;;;;5053051;28;20078;-76
2022/10/29 10:56:26;;;;;;;13.23;7.53;;;;;;;;;;5052680;28;20063;-75
2022/10/29 10:58:55;;;;;;;17.50;7.97;;;;;;;;;;5051600;28;20056;-76
2022/10/29 11:01:27;;;;;;;20.30;8.93;;;;;;;;;;5068353;28;20029;-76
2022/10/29 11:04:17;;;;;;;16.55;8.38;;;;;;;;;;5053162;28;20037;-75
2022/10/29 11:06:48;;;;;;;16.33;7.75;;;;;;;;;;5052902;28;20061;-76
2022/10/29 11:09:24;;;;;;;19.70;8.32;;;;;;;;;;5052921;28;20063;-75
2022/10/29 11:11:58;;;;;;;16.65;8.60;;;;;;;;;;5053268;28;20448;-76
2022/10/29 11:14:35;;;;;;;19.50;8.68;;;;;;;;;;5052715;28;20498;-75
2022/10/29 11:17:02;;;;;;;22.15;9.05;;;;;;;;;;5053024;28;20036;-76
2022/10/29 11:19:43;;;;;;;16.80;9.40;;;;;;;;;;5052809;28;20078;-77
2022/10/29 11:22:21;;;;;;;18.98;8.73;;;;;;;;;;5052388;28;20059;-76
2022/10/29 11:25:13;;;;;;;17.98;8.80;;;;;;;;;;5052478;28;20025;-75
2022/10/29 11:27:58;;;;;;;17.40;8.35;;;;;;;;;;5052646;28;20029;-77
2022/10/29 11:30:24;;;;;;;18.20;8.90;;;;;;;;;;5052488;28;20025;-76
2022/10/29 11:33:15;;;;;;;16.45;8.25;;;;;;;;;;5051977;28;20051;-76
2022/10/29 11:35:48;;;;;;;17.88;9.23;;;;;;;;;;5067960;28;20029;-75
2022/10/29 11:38:44;;;;;;;19.58;9.20;;;;;;;;;;5067812;28;20025;-76
2022/10/29 11:41:24;;;;;;;18.70;9.15;;;;;;;;;;5052259;28;20406;-76
2022/10/29 11:43:49;;;;;;;15.65;8.57;;;;;;;;;;5052051;28;20098;-77
2022/10/29 11:46:52;;;;;;;20.33;9.13;;;;;;;;;;5051793;28;20762;-76
2022/10/29 11:49:26;;;;;;;18.95;8.55;;;;;;;;;;5067575;28;20071;-76
2022/10/29 11:52:12;;;;;;;16.27;8.75;;;;;;;;;;5051335;28;20033;-77
2022/10/29 11:55:05;;;;;;;15.93;9.38;;;;;;;;;;5067395;28;20029;-76
2022/10/29 11:57:53;;;;;;;19.60;10.10;;;;;;;;;;5067091;28;20025;-76
2022/10/29 12:00:20;;;;;;;17.42;9.70;;;;;;;;;;5051811;28;20482;-77
2022/10/29 12:03:10;;;;;;;21.58;9.35;;;;;;;;;;5050283;28;20040;-75
2022/10/29 12:05:43;;;;;;;17.55;9.40;;;;;;;;;;5051785;28;20051;-76
2022/10/29 12:08:17;;;;;;;18.90;9.20;;;;;;;;;;5051512;28;20124;-76
2022/10/29 12:10:53;;;;;;;20.23;9.70;;;;;;;;;;5051651;28;20540;-76
2022/10/29 12:13:33;;;;;;;19.35;10.27;;;;;;;;;;5066906;28;20553;-76
2022/10/29 12:16:36;;;;;;;25.08;10.73;;;;;;;;;;5051536;28;20064;-76
2022/10/29 12:19:20;;;;;;;18.98;9.77;;;;;;;;;;5051536;28;20516;-76
2022/10/29 12:21:49;;;;;;;;;;;;;;;;;;5051493;28;20021;-74
2022/10/29 12:24:50;;;;;;;19.08;9.48;;;;;;;;;;5051130;28;19917;-75
2022/10/29 12:27:53;;;;;;;19.38;9.93;;;;;;;;;;5051789;28;20093;-76
2022/10/29 12:30:21;;;;;;;24.02;10.32;;;;;;;;;;5051301;28;20021;-76
2022/10/29 12:33:11;;;;;;;19.42;10.70;;;;;;;;;;5051097;28;20486;-76
2022/10/29 12:35:47;;;;;;;21.95;10.32;;;;;;;;;;5051324;28;20100;-76
2022/10/29 12:38:40;;;;;;;20.27;10.30;;;;;;;;;;5051308;28;20100;-76
2022/10/29 12:41:17;;;;;;;20.40;10.07;;;;;;;;;;5066551;28;20035;-76
2022/10/29 12:43:44;;;;;;;19.50;10.32;;;;;;;;;;5051171;28;20562;-75
2022/10/29 12:46:17;;;;;;;16.60;9.98;;;;;;;;;;5049522;28;20021;-74
2022/10/29 12:49:00;;;;;;;20.45;10.52;;;;;;;;;;5051012;28;20108;-75
2022/10/29 12:51:48;;;;;;;20.77;10.73;;;;;;;;;;5051045;28;20041;-75
2022/10/29 12:54:37;;;;;;;19.08;10.95;;;;;;;;;;5050915;28;20112;-74
2022/10/29 12:57:21;;;;;;;27.27;11.25;;;;;;;;;;5050439;28;20029;-76
2022/10/29 12:59:47;;;;;;;23.40;10.48;;;;;;;;;;5066174;28;20051;-75
2022/10/29 13:02:28;;;;;;;23.20;10.40;;;;;;;;;;5050644;28;20021;-76
2022/10/29 13:05:08;;;;;;;25.77;11.45;;;;;;;;;;5065730;28;20580;-76
2022/10/29 13:07:35;;;;;;;21.98;11.13;;;;;;;;;;5065908;28;20033;-76
2022/10/29 13:10:22;;;;;;;21.95;10.73;;;;;;;;;;5050170;28;20028;-75
2022/10/29 13:12:53;;;;;;;26.90;10.95;;;;;;;;;;5065535;28;20024;-77
2022/10/29 13:15:20;;;;;;;22.90;11.32;;;;;;;;;;5050500;28;20024;-75
2022/10/29 13:17:48;;;;;;;23.58;10.52;;;;;;;;;;5050469;28;20337;-74
2022/10/29 13:20:28;;;;;;;22.40;11.60;;;;;;;;;;5050041;28;20032;-76
2022/10/29 13:22:55;;;;;;;21.92;10.60;;;;;;;;;;5049136;28;20032;-76
2022/10/29 13:25:36;;;;;;;28.15;10.15;;;;;;;;;;5050252;28;20016;-75
2022/10/29 13:28:07;;;;;;;18.17;10.10;;;;;;;;;;5050462;28;20031;-75
2022/10/29 13:30:34;;;;;;;18.98;10.32;;;;;;;;;;5050543;28;20037;-75
2022/10/29 13:32:59;;;;;;;20.17;10.65;;;;;;;;;;5049741;28;20044;-75
2022/10/29 13:35:24;;;;;;;21.42;11.32;;;;;;;;;;5048757;28;20021;-75
2022/10/29 13:38:14;;;;;;;19.03;9.70;;;;;;;;;;5050581;28;20021;-76
2022/10/29 13:40:54;;;;;;;22.02;9.98;;;;;;;;;;5048748;28;20262;-75
2022/10/29 13:43:20;;;;;;;23.70;10.85;;;;;;;;;;5049927;28;20029;-75
2022/10/29 13:45:50;;;;;;;18.95;10.30;;;;;;;;;;5049741;28;20390;-76
2022/10/29 13:48:22;;;;;;;22.23;11.25;;;;;;;;;;5050358;28;20124;-76
2022/10/29 13:50:51;;;;;;;20.80;10.18;;;;;;;;;;5049963;28;20033;-76
2022/10/29 13:53:21;;;;;;;19.33;10.75;;;;;;;;;;5049953;28;20036;-76
2022/10/29 13:55:48;;;;;;;22.08;10.93;;;;;;;;;;5050127;28;20020;-78
2022/10/29 13:58:30;;;;;;;21.00;10.55;;;;;;;;;;5049782;28;20436;-75
2022/10/29 14:00:56;;;;;;;23.00;10.73;;;;;;;;;;5050058;28;20029;-75
2022/10/29 14:03:34;;;;;;;26.48;10.73;;;;;;;;;;5065143;28;20072;-75
2022/10/29 14:06:08;;;;;;;22.02;10.55;;;;;;;;;;5065431;28;20017;-76
2022/10/29 14:09:25;;;;;;;28.15;10.60;;;;;;;;;;5048265;28;20070;-76
2022/10/29 14:12:03;;;;;;;27.90;10.63;;;;;;;;;;5019781;28;20032;-77
2022/10/29 14:14:28;;;;;;;21.25;10.88;;;;;;;;;;5049638;28;20033;-77
2022/10/29 14:17:29;;;;;;;21.40;10.70;;;;;;;;;;5048965;28;20051;-76
2022/10/29 14:19:57;;;;;;;18.73;10.63;;;;;;;;;;5010418;28;20124;-76
2022/10/29 14:22:36;;;;;;;18.70;10.32;;;;;;;;;;5044816;28;20033;-76
2022/10/29 14:25:25;;;;;;;25.13;11.13;;;;;;;;;;5049350;28;20370;-74
2022/10/29 14:28:12;;;;;;;18.05;10.60;;;;;;;;;;5049463;28;20078;-76
2022/10/29 14:30:37;;;;;;;21.67;10.68;;;;;;;;;;5049206;28;20481;-77
2022/10/29 14:33:17;;;;;;;21.60;10.90;;;;;;;;;;5049048;28;20029;-76
2022/10/29 14:35:45;;;;;;;20.55;10.55;;;;;;;;;;5064602;28;20025;-76
2022/10/29 14:38:12;;;;;;;20.08;11.18;;;;;;;;;;5049271;28;20029;-75
2022/10/29 14:40:38;;;;;;;21.80;10.95;;;;;;;;;;5049206;28;20402;-77
2022/10/29 14:43:04;;;;;;;20.17;10.60;;;;;;;;;;5049249;28;20033;-75
2022/10/29 14:45:30;;;;;;;23.73;11.52;;;;;;;;;;5048884;28;20107;-75